Time;durP1;ratioP1;P1;durP2;ratioP2;P2;SDS_P1;SDS_P2;PMS_P1;PMS_P2;Temp;Humidity;BMP_temperature;BMP_pressure;BME280_temperature;BME280_humidity;BME280_pressure;Samples;Min_cycle;Max_cycle;Signal;HPM_P1;HPM_P2
2022/08/27 00:02:02;;;;;;;5.90;5.03;;;;;;;;;;5075041;28;20444;-75
2022/08/27 00:04:30;;;;;;;7.07;5.57;;;;;;;;;;5074578;28;20555;-74
2022/08/27 00:06:57;;;;;;;6.10;5.50;;;;;;;;;;5074960;28;20444;-75
2022/08/27 00:09:24;;;;;;;5.60;5.10;;;;;;;;;;5074792;28;20513;-74
2022/08/27 00:11:53;;;;;;;5.80;5.00;;;;;;;;;;5074721;28;20490;-74
2022/08/27 00:14:20;;;;;;;5.07;4.57;;;;;;;;;;5073971;28;20478;-75
2022/08/27 00:16:47;;;;;;;6.27;5.70;;;;;;;;;;5074741;28;20456;-74
2022/08/27 00:19:14;;;;;;;8.83;5.70;;;;;;;;;;5074653;28;20975;-74
2022/08/27 00:21:41;;;;;;;7.93;7.13;;;;;;;;;;5074732;28;20490;-76
2022/08/27 00:24:09;;;;;;;6.60;5.70;;;;;;;;;;5073711;28;20563;-74
2022/08/27 00:26:36;;;;;;;5.80;5.30;;;;;;;;;;5074630;28;20820;-74
2022/08/27 00:29:06;;;;;;;8.83;5.73;;;;;;;;;;5074801;28;20886;-75
2022/08/27 00:31:34;;;;;;;5.80;5.37;;;;;;;;;;5075015;28;20564;-75
2022/08/27 00:34:01;;;;;;;5.67;5.17;;;;;;;;;;5074642;28;20503;-76
2022/08/27 00:36:28;;;;;;;6.83;6.23;;;;;;;;;;5074476;28;20929;-75
2022/08/27 00:38:55;;;;;;;6.90;6.30;;;;;;;;;;5074485;28;20454;-76
2022/08/27 00:41:23;;;;;;;7.30;6.50;;;;;;;;;;5074346;28;21025;-74
2022/08/27 00:43:52;;;;;;;10.03;6.53;;;;;;;;;;5074188;28;20565;-77
2022/08/27 00:46:23;;;;;;;6.50;5.90;;;;;;;;;;5074294;28;20835;-74
2022/08/27 00:48:52;;;;;;;8.10;6.83;;;;;;;;;;5074265;28;20480;-74
2022/08/27 00:51:20;;;;;;;10.07;5.73;;;;;;;;;;5074174;28;20451;-74
2022/08/27 00:53:48;;;;;;;8.23;7.07;;;;;;;;;;5074054;28;20499;-74
2022/08/27 00:56:18;;;;;;;8.83;6.70;;;;;;;;;;5074124;28;20444;-74
2022/08/27 00:58:46;;;;;;;8.27;6.97;;;;;;;;;;5074476;28;20996;-74
2022/08/27 01:01:14;;;;;;;7.00;6.40;;;;;;;;;;5074119;28;20459;-74
2022/08/27 01:03:46;;;;;;;9.10;7.30;;;;;;;;;;5073755;28;20468;-74
2022/08/27 01:06:14;;;;;;;10.13;8.40;;;;;;;;;;5073771;28;20554;-74
2022/08/27 01:08:42;;;;;;;11.10;8.90;;;;;;;;;;5074032;28;20460;-74
2022/08/27 01:11:10;;;;;;;11.70;8.40;;;;;;;;;;5073798;28;20478;-74
2022/08/27 01:13:38;;;;;;;11.60;8.80;;;;;;;;;;5073020;28;20491;-74
2022/08/27 01:16:06;;;;;;;17.13;11.17;;;;;;;;;;5073668;28;20471;-74
2022/08/27 01:18:36;;;;;;;18.50;11.30;;;;;;;;;;5073566;28;20451;-74
2022/08/27 01:21:07;;;;;;;14.73;11.83;;;;;;;;;;5073268;28;20467;-74
2022/08/27 01:23:38;;;;;;;16.70;13.43;;;;;;;;;;5073307;28;20476;-74
2022/08/27 01:26:07;;;;;;;19.33;13.70;;;;;;;;;;5073405;28;20940;-74
2022/08/27 01:28:36;;;;;;;24.83;13.40;;;;;;;;;;5073294;28;20455;-74
2022/08/27 01:31:03;;;;;;;21.03;13.47;;;;;;;;;;5073306;28;20455;-74
2022/08/27 01:33:31;;;;;;;20.50;14.07;;;;;;;;;;5072938;28;20491;-75
2022/08/27 01:35:58;;;;;;;17.00;13.07;;;;;;;;;;5073320;28;20936;-74
2022/08/27 01:38:26;;;;;;;18.73;12.90;;;;;;;;;;5073072;28;20452;-74
2022/08/27 01:40:53;;;;;;;16.60;12.23;;;;;;;;;;5073267;28;20459;-74
2022/08/27 01:43:21;;;;;;;24.60;14.87;;;;;;;;;;5073074;28;20543;-74
2022/08/27 01:45:50;;;;;;;22.50;14.20;;;;;;;;;;5073171;28;20478;-74
2022/08/27 01:48:17;;;;;;;19.00;14.27;;;;;;;;;;5073079;28;20452;-75
2022/08/27 01:50:45;;;;;;;18.07;13.43;;;;;;;;;;5073449;28;20452;-75
2022/08/27 01:53:14;;;;;;;20.80;15.67;;;;;;;;;;5073169;28;20506;-75
2022/08/27 01:55:42;;;;;;;22.70;15.47;;;;;;;;;;5072816;28;20447;-75
2022/08/27 01:58:10;;;;;;;19.23;15.30;;;;;;;;;;5073204;28;21013;-75
2022/08/27 02:00:40;;;;;;;23.30;18.57;;;;;;;;;;5072889;28;20459;-75
2022/08/27 02:03:08;;;;;;;24.20;17.27;;;;;;;;;;5072980;28;20467;-75
2022/08/27 02:05:36;;;;;;;24.07;18.53;;;;;;;;;;5072719;28;20462;-75
2022/08/27 02:08:04;;;;;;;20.60;16.00;;;;;;;;;;5073069;28;20888;-75
2022/08/27 02:10:33;;;;;;;29.70;18.43;;;;;;;;;;5073018;28;20440;-75
2022/08/27 02:13:00;;;;;;;30.60;20.70;;;;;;;;;;5072244;28;20487;-75
2022/08/27 02:15:27;;;;;;;31.17;18.30;;;;;;;;;;5072519;28;20452;-75
2022/08/27 02:17:56;;;;;;;27.67;19.03;;;;;;;;;;5072954;28;20455;-75
2022/08/27 02:20:23;;;;;;;27.40;19.37;;;;;;;;;;5072786;28;20454;-75
2022/08/27 02:22:51;;;;;;;31.23;20.77;;;;;;;;;;5072511;28;20546;-75
2022/08/27 02:25:18;;;;;;;30.50;20.40;;;;;;;;;;5072420;28;20459;-75
2022/08/27 02:27:47;;;;;;;25.63;20.67;;;;;;;;;;5072707;28;20456;-75
2022/08/27 02:30:15;;;;;;;39.13;22.40;;;;;;;;;;5072640;28;20956;-75
2022/08/27 02:32:44;;;;;;;31.53;21.77;;;;;;;;;;5072617;28;20487;-74
2022/08/27 02:35:12;;;;;;;31.90;20.90;;;;;;;;;;5072559;28;20444;-75
2022/08/27 02:37:40;;;;;;;32.67;21.27;;;;;;;;;;5072673;28;20460;-75
2022/08/27 02:40:08;;;;;;;29.33;20.47;;;;;;;;;;5072614;28;20882;-75
2022/08/27 02:42:35;;;;;;;26.40;19.70;;;;;;;;;;5072540;28;20451;-75
2022/08/27 02:45:02;;;;;;;27.30;21.03;;;;;;;;;;5072305;28;20475;-75
2022/08/27 02:47:30;;;;;;;29.00;18.53;;;;;;;;;;5076010;28;20478;-75
2022/08/27 02:49:57;;;;;;;33.30;21.17;;;;;;;;;;5076390;28;20448;-75
2022/08/27 02:52:26;;;;;;;22.73;17.13;;;;;;;;;;5076118;28;20455;-75
2022/08/27 02:54:54;;;;;;;25.53;18.63;;;;;;;;;;5076025;28;20972;-75
2022/08/27 02:57:21;;;;;;;29.00;20.33;;;;;;;;;;5076019;28;20460;-75
2022/08/27 02:59:48;;;;;;;30.17;18.17;;;;;;;;;;5076214;28;20455;-75
2022/08/27 03:02:15;;;;;;;24.10;19.20;;;;;;;;;;5076097;28;20447;-75
2022/08/27 03:04:42;;;;;;;19.30;14.60;;;;;;;;;;5075968;28;20472;-75
2022/08/27 03:07:09;;;;;;;20.73;16.30;;;;;;;;;;5076001;28;20455;-75
2022/08/27 03:09:38;;;;;;;28.57;16.43;;;;;;;;;;5075737;28;20536;-75
2022/08/27 03:12:06;;;;;;;19.63;15.60;;;;;;;;;;5075938;28;20568;-74
2022/08/27 03:14:33;;;;;;;16.87;14.70;;;;;;;;;;5075018;28;20495;-74
2022/08/27 03:18:16;;;;;;;22.67;15.50;;;;;;;;;;5075965;28;20817;-74
2022/08/27 03:19:49;;;;;;;19.30;14.53;;;;;;;;;;5075610;28;20523;-74
2022/08/27 03:22:16;;;;;;;27.10;15.77;;;;;;;;;;5075659;28;20844;-75
2022/08/27 03:24:45;;;;;;;21.13;15.70;;;;;;;;;;5075476;28;20471;-74
2022/08/27 03:27:12;;;;;;;24.70;17.47;;;;;;;;;;5075682;28;20452;-74
2022/08/27 03:29:40;;;;;;;22.30;14.70;;;;;;;;;;5075669;28;20538;-74
2022/08/27 03:32:07;;;;;;;20.40;15.57;;;;;;;;;;5075522;28;20455;-74
2022/08/27 03:34:34;;;;;;;17.00;14.90;;;;;;;;;;5075293;28;20506;-75
2022/08/27 03:37:01;;;;;;;26.13;15.20;;;;;;;;;;5075635;28;20452;-75
2022/08/27 03:39:28;;;;;;;19.17;14.13;;;;;;;;;;5075464;28;20455;-75
2022/08/27 03:41:57;;;;;;;20.30;14.43;;;;;;;;;;5075781;28;20460;-75
2022/08/27 03:44:24;;;;;;;18.03;14.63;;;;;;;;;;5074987;28;21071;-75
2022/08/27 03:46:53;;;;;;;22.40;16.00;;;;;;;;;;5075494;28;20443;-75
2022/08/27 03:49:21;;;;;;;21.17;15.10;;;;;;;;;;5075280;28;20455;-75
2022/08/27 03:51:48;;;;;;;19.83;14.53;;;;;;;;;;5075472;28;20822;-75
2022/08/27 03:54:15;;;;;;;20.73;14.90;;;;;;;;;;5074829;28;20495;-75
2022/08/27 03:56:42;;;;;;;20.17;15.07;;;;;;;;;;5074862;28;20459;-75
2022/08/27 03:59:11;;;;;;;17.00;13.80;;;;;;;;;;5074380;28;20450;-75
2022/08/27 04:01:38;;;;;;;21.77;16.70;;;;;;;;;;5074951;28;20483;-75
2022/08/27 04:04:05;;;;;;;21.27;17.47;;;;;;;;;;5074704;28;21118;-75
2022/08/27 04:06:34;;;;;;;17.37;14.10;;;;;;;;;;5074997;28;20491;-75
2022/08/27 04:09:01;;;;;;;17.73;13.90;;;;;;;;;;5074886;28;20451;-75
2022/08/27 04:11:29;;;;;;;21.17;16.00;;;;;;;;;;5074713;28;20455;-75
2022/08/27 04:13:56;;;;;;;21.17;16.43;;;;;;;;;;5074042;28;20922;-75
2022/08/27 04:16:25;;;;;;;19.03;16.37;;;;;;;;;;5074728;28;20451;-75
2022/08/27 04:18:54;;;;;;;29.20;17.00;;;;;;;;;;5075002;28;20489;-75
2022/08/27 04:21:22;;;;;;;24.17;17.57;;;;;;;;;;5074553;28;20848;-75
2022/08/27 04:23:49;;;;;;;21.67;16.57;;;;;;;;;;5074341;28;20880;-75
2022/08/27 04:26:16;;;;;;;26.93;19.07;;;;;;;;;;5074566;28;21011;-74
2022/08/27 04:28:43;;;;;;;20.80;16.97;;;;;;;;;;5074648;28;20458;-74
2022/08/27 04:31:11;;;;;;;23.47;17.27;;;;;;;;;;5074706;28;20937;-74
2022/08/27 04:33:39;;;;;;;24.63;17.47;;;;;;;;;;5073973;28;20494;-74
2022/08/27 04:36:08;;;;;;;23.77;16.70;;;;;;;;;;5074478;28;20830;-75
2022/08/27 04:38:35;;;;;;;23.90;15.37;;;;;;;;;;5074600;28;20440;-74
2022/08/27 04:41:23;;;;;;;21.93;16.60;;;;;;;;;;5074153;28;20456;-74
2022/08/27 04:43:52;;;;;;;19.87;16.30;;;;;;;;;;5073918;28;20481;-74
2022/08/27 04:46:20;;;;;;;26.23;18.50;;;;;;;;;;5074062;28;20829;-74
2022/08/27 04:48:48;;;;;;;26.13;17.10;;;;;;;;;;5074156;28;20450;-74
2022/08/27 04:51:16;;;;;;;24.17;17.80;;;;;;;;;;5074210;28;20452;-74
2022/08/27 04:53:43;;;;;;;31.37;21.90;;;;;;;;;;5073724;28;20499;-75
2022/08/27 04:56:13;;;;;;;21.73;17.03;;;;;;;;;;5073886;28;20447;-75
2022/08/27 04:58:40;;;;;;;23.43;18.07;;;;;;;;;;5073950;28;20505;-75
2022/08/27 05:01:07;;;;;;;24.00;16.87;;;;;;;;;;5073850;28;20447;-75
2022/08/27 05:03:34;;;;;;;31.10;17.97;;;;;;;;;;5073493;28;20806;-75
2022/08/27 05:06:04;;;;;;;25.20;17.23;;;;;;;;;;5073793;28;20940;-75
2022/08/27 05:08:31;;;;;;;26.50;17.30;;;;;;;;;;5073272;28;20452;-75
2022/08/27 05:10:59;;;;;;;22.10;16.90;;;;;;;;;;5073789;28;20447;-75
2022/08/27 05:13:26;;;;;;;20.83;15.87;;;;;;;;;;5072787;28;20490;-75
2022/08/27 05:15:58;;;;;;;29.40;15.27;;;;;;;;;;5073640;28;20964;-75
2022/08/27 05:18:25;;;;;;;23.60;16.27;;;;;;;;;;5073561;28;20482;-75
2022/08/27 05:20:52;;;;;;;26.93;16.00;;;;;;;;;;5073455;28;20475;-75
2022/08/27 05:23:21;;;;;;;20.20;16.00;;;;;;;;;;5073405;28;20472;-74
2022/08/27 05:25:50;;;;;;;20.53;15.17;;;;;;;;;;5073345;28;21043;-74
2022/08/27 05:28:20;;;;;;;22.53;13.17;;;;;;;;;;5073277;28;20964;-74
2022/08/27 05:30:48;;;;;;;20.53;14.57;;;;;;;;;;5073518;28;20456;-75
2022/08/27 05:33:16;;;;;;;21.00;15.43;;;;;;;;;;5073218;28;20563;-75
2022/08/27 05:35:44;;;;;;;19.20;15.23;;;;;;;;;;5073130;28;20952;-74
2022/08/27 05:38:12;;;;;;;23.10;15.30;;;;;;;;;;5073351;28;20460;-74
2022/08/27 05:40:42;;;;;;;17.00;15.20;;;;;;;;;;5073312;28;20463;-74
2022/08/27 05:43:10;;;;;;;23.73;16.60;;;;;;;;;;5073144;28;20486;-74
2022/08/27 05:45:40;;;;;;;25.97;15.90;;;;;;;;;;5072935;28;20478;-74
2022/08/27 05:48:09;;;;;;;27.63;16.47;;;;;;;;;;5073062;28;20451;-74
2022/08/27 05:50:36;;;;;;;19.60;16.10;;;;;;;;;;5072993;28;20460;-74
2022/08/27 05:53:03;;;;;;;17.80;14.30;;;;;;;;;;5073347;28;20558;-74
2022/08/27 05:55:30;;;;;;;24.33;17.20;;;;;;;;;;5072740;28;20495;-75
2022/08/27 05:57:59;;;;;;;26.70;17.33;;;;;;;;;;5073202;28;20505;-74
2022/08/27 06:03:11;;;;;;;18.87;16.00;;;;;;;;;;5072920;28;20447;-74
2022/08/27 06:05:38;;;;;;;26.80;15.33;;;;;;;;;;5072778;28;20521;-74
2022/08/27 06:08:05;;;;;;;21.30;15.57;;;;;;;;;;5072929;28;20443;-74
2022/08/27 06:10:34;;;;;;;21.07;15.80;;;;;;;;;;5072996;28;20917;-74
2022/08/27 06:13:03;;;;;;;23.23;15.87;;;;;;;;;;5072652;28;20458;-74
2022/08/27 06:15:30;;;;;;;25.70;16.00;;;;;;;;;;5072449;28;20491;-74
2022/08/27 06:17:57;;;;;;;21.73;15.83;;;;;;;;;;5073011;28;20535;-74
2022/08/27 06:20:24;;;;;;;19.53;13.03;;;;;;;;;;5072818;28;20455;-74
2022/08/27 06:22:52;;;;;;;18.50;14.00;;;;;;;;;;5076778;28;20470;-74
2022/08/27 06:25:19;;;;;;;19.83;12.07;;;;;;;;;;5076530;28;20502;-74
2022/08/27 06:27:46;;;;;;;15.77;12.17;;;;;;;;;;5076958;28;20948;-74
2022/08/27 06:30:14;;;;;;;13.63;11.20;;;;;;;;;;5076804;28;20462;-74
2022/08/27 06:32:42;;;;;;;15.07;11.30;;;;;;;;;;5076833;28;20447;-74
2022/08/27 06:35:09;;;;;;;17.03;13.00;;;;;;;;;;5076573;28;21019;-74
2022/08/27 06:37:36;;;;;;;16.47;12.27;;;;;;;;;;5076681;28;20447;-75
2022/08/27 06:40:03;;;;;;;14.07;11.57;;;;;;;;;;5076700;28;20450;-74
2022/08/27 06:42:31;;;;;;;17.13;11.63;;;;;;;;;;5076624;28;20470;-74
2022/08/27 06:44:58;;;;;;;14.83;10.97;;;;;;;;;;5076062;28;20524;-74
2022/08/27 06:47:26;;;;;;;17.10;11.20;;;;;;;;;;5075866;28;20973;-74
2022/08/27 06:49:54;;;;;;;17.83;12.43;;;;;;;;;;5076474;28;20958;-74
2022/08/27 06:52:21;;;;;;;13.13;11.73;;;;;;;;;;5076221;28;20550;-74
2022/08/27 06:54:49;;;;;;;16.23;10.87;;;;;;;;;;5075913;28;20491;-74
2022/08/27 06:57:16;;;;;;;17.70;11.90;;;;;;;;;;5076139;28;20455;-74
2022/08/27 06:59:43;;;;;;;18.23;12.90;;;;;;;;;;5076247;28;20451;-74
2022/08/27 07:02:11;;;;;;;16.30;11.57;;;;;;;;;;5076265;28;20509;-74
2022/08/27 07:04:39;;;;;;;14.57;10.57;;;;;;;;;;5075717;28;20514;-74
2022/08/27 07:07:06;;;;;;;14.80;9.97;;;;;;;;;;5077493;28;20803;-74
2022/08/27 07:09:34;;;;;;;16.77;12.00;;;;;;;;;;5087370;28;20460;-74
2022/08/27 07:12:01;;;;;;;12.53;10.73;;;;;;;;;;5084722;28;20463;-74
2022/08/27 07:14:29;;;;;;;11.10;9.80;;;;;;;;;;5084722;28;20504;-74
2022/08/27 07:16:56;;;;;;;18.67;10.93;;;;;;;;;;5081213;28;20463;-74
2022/08/27 07:19:23;;;;;;;19.73;10.40;;;;;;;;;;5075875;28;20448;-74
2022/08/27 07:21:51;;;;;;;16.20;10.60;;;;;;;;;;5083701;28;20454;-74
2022/08/27 07:24:19;;;;;;;13.80;9.97;;;;;;;;;;5085017;28;20463;-74
2022/08/27 07:26:46;;;;;;;16.20;11.47;;;;;;;;;;5079006;28;20795;-74
2022/08/27 07:29:14;;;;;;;13.80;10.63;;;;;;;;;;5075841;28;20444;-74
2022/08/27 07:31:42;;;;;;;13.00;11.00;;;;;;;;;;5075410;28;20489;-74
2022/08/27 07:34:09;;;;;;;13.20;11.40;;;;;;;;;;5075235;28;20487;-74
2022/08/27 07:36:37;;;;;;;15.20;10.33;;;;;;;;;;5075604;28;20459;-74
2022/08/27 07:39:06;;;;;;;13.03;8.30;;;;;;;;;;5075601;28;20451;-74
2022/08/27 07:44:23;;;;;;;11.33;10.13;;;;;;;;;;5075422;28;20447;-74
2022/08/27 07:44:24;;;;;;;15.07;9.97;;;;;;;;;;5075086;28;20499;-73
2022/08/27 07:46:51;;;;;;;11.97;8.50;;;;;;;;;;5075424;28;20949;-73
2022/08/27 07:49:19;;;;;;;13.97;9.50;;;;;;;;;;5075472;28;20886;-74
2022/08/27 07:51:46;;;;;;;12.53;9.70;;;;;;;;;;5075517;28;20537;-74
2022/08/27 07:54:15;;;;;;;16.30;11.00;;;;;;;;;;5074913;28;20995;-74
2022/08/27 07:56:42;;;;;;;13.20;9.57;;;;;;;;;;5075215;28;20460;-74
2022/08/27 07:59:09;;;;;;;12.20;9.77;;;;;;;;;;5074630;28;20458;-74
2022/08/27 08:01:37;;;;;;;10.53;8.80;;;;;;;;;;5075162;28;20452;-74
2022/08/27 08:04:04;;;;;;;11.77;8.90;;;;;;;;;;5074941;28;20472;-74
2022/08/27 08:06:32;;;;;;;9.30;7.83;;;;;;;;;;5075003;28;20448;-74
2022/08/27 08:08:59;;;;;;;10.47;8.37;;;;;;;;;;5074992;28;20451;-74
2022/08/27 08:11:28;;;;;;;11.17;8.93;;;;;;;;;;5074781;28;20488;-74
2022/08/27 08:13:55;;;;;;;11.17;8.10;;;;;;;;;;5074034;28;20505;-74
2022/08/27 08:16:24;;;;;;;15.70;8.33;;;;;;;;;;5074692;28;20482;-74
2022/08/27 08:18:51;;;;;;;13.67;9.87;;;;;;;;;;5074927;28;20459;-74
2022/08/27 08:21:18;;;;;;;9.80;8.33;;;;;;;;;;5074488;28;20471;-74
2022/08/27 08:23:47;;;;;;;12.67;9.40;;;;;;;;;;5074412;28;20468;-74
2022/08/27 08:26:15;;;;;;;12.27;8.93;;;;;;;;;;5074615;28;20459;-74
2022/08/27 08:28:44;;;;;;;10.20;9.10;;;;;;;;;;5074554;28;20447;-74
2022/08/27 08:31:11;;;;;;;12.50;8.50;;;;;;;;;;5074711;28;20501;-74
2022/08/27 08:33:38;;;;;;;12.30;9.20;;;;;;;;;;5074136;28;20468;-74
2022/08/27 08:36:07;;;;;;;11.67;9.77;;;;;;;;;;5074466;28;20487;-74
2022/08/27 08:38:34;;;;;;;9.10;8.20;;;;;;;;;;5074281;28;20801;-74
2022/08/27 08:41:01;;;;;;;11.23;10.03;;;;;;;;;;5074368;28;20807;-74
2022/08/27 08:43:31;;;;;;;9.80;8.87;;;;;;;;;;5073406;28;20476;-74
2022/08/27 08:46:03;;;;;;;13.40;9.77;;;;;;;;;;5074529;28;20534;-74
2022/08/27 08:48:30;;;;;;;12.43;9.13;;;;;;;;;;5074326;28;20448;-74
2022/08/27 08:50:59;;;;;;;11.30;9.47;;;;;;;;;;5074205;28;20487;-75
2022/08/27 08:53:33;;;;;;;10.80;8.83;;;;;;;;;;5073954;28;20479;-74
2022/08/27 08:56:02;;;;;;;10.30;9.30;;;;;;;;;;5073981;28;20996;-74
2022/08/27 08:58:33;;;;;;;11.37;9.30;;;;;;;;;;5073995;28;20459;-75
2022/08/27 09:01:02;;;;;;;14.10;8.17;;;;;;;;;;5074034;28;20955;-75
2022/08/27 09:03:30;;;;;;;12.53;8.17;;;;;;;;;;5073680;28;20480;-75
2022/08/27 09:06:00;;;;;;;13.60;9.70;;;;;;;;;;5073728;28;20450;-75
2022/08/27 09:08:30;;;;;;;14.70;10.03;;;;;;;;;;5073791;28;20562;-75
2022/08/27 09:11:00;;;;;;;9.93;9.00;;;;;;;;;;5073815;28;20871;-75
2022/08/27 09:13:30;;;;;;;11.07;10.03;;;;;;;;;;5073169;28;20471;-74
2022/08/27 09:15:58;;;;;;;10.87;9.73;;;;;;;;;;5073840;28;20840;-74
2022/08/27 09:18:27;;;;;;;17.80;10.87;;;;;;;;;;5073521;28;20490;-74
2022/08/27 09:20:59;;;;;;;11.50;10.23;;;;;;;;;;5073422;28;20938;-74
2022/08/27 09:23:31;;;;;;;10.87;9.77;;;;;;;;;;5073263;28;20828;-74
2022/08/27 09:25:58;;;;;;;10.83;8.67;;;;;;;;;;5073434;28;20959;-74
2022/08/27 09:31:13;;;;;;;10.00;8.33;;;;;;;;;;5073398;28;20418;-75
2022/08/27 09:33:41;;;;;;;11.23;10.07;;;;;;;;;;5073098;28;20992;-74
2022/08/27 09:36:09;;;;;;;12.47;11.00;;;;;;;;;;5073303;28;20494;-74
2022/08/27 09:38:36;;;;;;;13.63;10.60;;;;;;;;;;5073273;28;20466;-74
2022/08/27 09:41:08;;;;;;;14.03;11.23;;;;;;;;;;5073438;28;20470;-74
2022/08/27 09:43:37;;;;;;;10.70;9.70;;;;;;;;;;5072843;28;20483;-74
2022/08/27 09:46:06;;;;;;;11.10;10.00;;;;;;;;;;5073093;28;20456;-75
2022/08/27 09:48:34;;;;;;;11.30;10.13;;;;;;;;;;5073023;28;20456;-74
2022/08/27 09:51:07;;;;;;;15.10;11.50;;;;;;;;;;5073237;28;20978;-75
2022/08/27 09:53:38;;;;;;;12.00;10.70;;;;;;;;;;5072864;28;20566;-74
2022/08/27 09:56:06;;;;;;;12.37;11.20;;;;;;;;;;5072121;28;20491;-74
2022/08/27 09:58:45;;;;;;;8.93;8.10;;;;;;;;;;5073087;28;20451;-74
2022/08/27 10:01:17;;;;;;;9.67;6.33;;;;;;;;;;5073171;28;20451;-74
2022/08/27 10:03:44;;;;;;;9.83;7.00;;;;;;;;;;5072705;28;20578;-74
2022/08/27 10:06:12;;;;;;;8.10;6.83;;;;;;;;;;5072987;28;20459;-75
2022/08/27 10:08:42;;;;;;;8.80;6.17;;;;;;;;;;5072647;28;20452;-75
2022/08/27 10:11:11;;;;;;;8.60;6.97;;;;;;;;;;5072909;28;20447;-74
2022/08/27 10:13:42;;;;;;;8.20;7.27;;;;;;;;;;5071769;28;20479;-74
2022/08/27 10:16:25;;;;;;;6.23;5.53;;;;;;;;;;5072460;28;20911;-74
2022/08/27 10:18:54;;;;;;;8.80;6.53;;;;;;;;;;5072472;28;20456;-74
2022/08/27 10:21:25;;;;;;;8.23;6.30;;;;;;;;;;5072362;28;20820;-74
2022/08/27 10:23:55;;;;;;;6.60;6.00;;;;;;;;;;5072280;28;20554;-74
2022/08/27 10:26:26;;;;;;;8.90;5.90;;;;;;;;;;5072441;28;20900;-74
2022/08/27 10:29:03;;;;;;;8.67;6.80;;;;;;;;;;5072720;28;20452;-74
2022/08/27 10:31:34;;;;;;;9.63;8.17;;;;;;;;;;5072603;28;20455;-75
2022/08/27 10:34:11;;;;;;;10.67;7.97;;;;;;;;;;5072410;28;20475;-74
2022/08/27 10:36:43;;;;;;;6.90;6.20;;;;;;;;;;5072423;28;20490;-74
2022/08/27 10:39:17;;;;;;;6.93;6.23;;;;;;;;;;5072504;28;20963;-74
2022/08/27 10:41:48;;;;;;;6.60;5.90;;;;;;;;;;5072499;28;21066;-75
2022/08/27 10:44:33;;;;;;;7.27;6.13;;;;;;;;;;5072470;28;20475;-74
2022/08/27 10:47:07;;;;;;;6.80;6.20;;;;;;;;;;5072619;28;20447;-74
2022/08/27 10:49:40;;;;;;;8.03;6.47;;;;;;;;;;5072632;28;20452;-74
2022/08/27 10:52:13;;;;;;;5.90;5.40;;;;;;;;;;5072573;28;20440;-74
2022/08/27 10:54:42;;;;;;;9.80;6.10;;;;;;;;;;5072223;28;20969;-74
2022/08/27 10:57:13;;;;;;;10.63;6.87;;;;;;;;;;5072568;28;20491;-74
2022/08/27 10:59:44;;;;;;;10.10;6.80;;;;;;;;;;5072451;28;20478;-74
2022/08/27 11:02:16;;;;;;;9.70;6.27;;;;;;;;;;5072596;28;20820;-75
2022/08/27 11:04:47;;;;;;;7.83;6.30;;;;;;;;;;5072191;28;20486;-74
2022/08/27 11:07:18;;;;;;;9.07;7.03;;;;;;;;;;5073996;28;20817;-74
2022/08/27 11:09:48;;;;;;;6.90;6.20;;;;;;;;;;5076198;28;20811;-74
2022/08/27 11:12:18;;;;;;;6.73;6.00;;;;;;;;;;5076053;28;20825;-75
2022/08/27 11:14:48;;;;;;;6.70;6.00;;;;;;;;;;5075612;28;20984;-74
2022/08/27 11:17:17;;;;;;;8.13;6.57;;;;;;;;;;5076041;28;20490;-74
2022/08/27 11:19:48;;;;;;;9.93;7.70;;;;;;;;;;5076048;28;20458;-74
2022/08/27 11:22:20;;;;;;;7.60;6.73;;;;;;;;;;5075730;28;20486;-74
2022/08/27 11:24:51;;;;;;;10.17;7.10;;;;;;;;;;5075660;28;20473;-74
2022/08/27 11:27:21;;;;;;;7.03;6.13;;;;;;;;;;5075819;28;20479;-74
2022/08/27 11:29:52;;;;;;;7.40;6.70;;;;;;;;;;5075921;28;20462;-74
2022/08/27 11:32:23;;;;;;;8.63;6.17;;;;;;;;;;5075697;28;20458;-74
2022/08/27 11:34:52;;;;;;;9.60;6.73;;;;;;;;;;5075396;28;20467;-74
2022/08/27 11:37:36;;;;;;;7.60;6.80;;;;;;;;;;5075415;28;20567;-74
2022/08/27 11:40:17;;;;;;;7.80;7.00;;;;;;;;;;5075386;28;20460;-74
2022/08/27 11:42:47;;;;;;;7.80;7.03;;;;;;;;;;5075370;28;20459;-74
2022/08/27 11:45:16;;;;;;;8.20;6.30;;;;;;;;;;5075244;28;20558;-74
2022/08/27 11:47:51;;;;;;;6.50;5.90;;;;;;;;;;5075342;28;20451;-74
2022/08/27 11:50:20;;;;;;;7.43;6.37;;;;;;;;;;5075429;28;20447;-74
2022/08/27 11:52:57;;;;;;;6.40;5.77;;;;;;;;;;5075268;28;20448;-75
2022/08/27 11:55:26;;;;;;;10.00;6.10;;;;;;;;;;5074799;28;20451;-74
2022/08/27 11:58:04;;;;;;;7.17;5.77;;;;;;;;;;5075187;28;20452;-74
2022/08/27 12:00:33;;;;;;;7.70;6.07;;;;;;;;;;5075051;28;20451;-75
2022/08/27 12:03:01;;;;;;;7.50;6.33;;;;;;;;;;5074896;28;20460;-74
2022/08/27 12:05:35;;;;;;;7.60;5.67;;;;;;;;;;5074632;28;20505;-74
2022/08/27 12:08:13;;;;;;;7.60;6.00;;;;;;;;;;5075269;28;20814;-74
2022/08/27 12:10:47;;;;;;;9.43;6.13;;;;;;;;;;5074693;28;20462;-74
2022/08/27 12:13:18;;;;;;;9.83;5.50;;;;;;;;;;5074323;28;20965;-74
2022/08/27 12:15:56;;;;;;;7.57;5.87;;;;;;;;;;5074496;28;21017;-74
2022/08/27 12:18:40;;;;;;;5.83;5.23;;;;;;;;;;5073651;28;20481;-75
2022/08/27 12:21:14;;;;;;;7.63;5.30;;;;;;;;;;5074861;28;20550;-74
2022/08/27 12:23:48;;;;;;;5.57;5.07;;;;;;;;;;5074217;28;20562;-74
2022/08/27 12:26:30;;;;;;;6.10;5.47;;;;;;;;;;5074692;28;20944;-75
2022/08/27 12:29:12;;;;;;;5.90;4.87;;;;;;;;;;5074884;28;20976;-75
2022/08/27 12:31:42;;;;;;;6.13;5.53;;;;;;;;;;5073761;28;20467;-75
2022/08/27 12:34:14;;;;;;;6.00;5.40;;;;;;;;;;5074046;28;20890;-74
2022/08/27 12:36:41;;;;;;;9.80;5.53;;;;;;;;;;5074236;28;20506;-74
2022/08/27 12:39:14;;;;;;;7.87;5.80;;;;;;;;;;5074284;28;20454;-74
2022/08/27 12:41:45;;;;;;;7.80;7.00;;;;;;;;;;5074371;28;20447;-74
2022/08/27 12:44:13;;;;;;;6.43;5.20;;;;;;;;;;5074014;28;20479;-75
2022/08/27 12:46:46;;;;;;;7.17;6.13;;;;;;;;;;5074257;28;20448;-75
2022/08/27 12:49:17;;;;;;;6.27;5.53;;;;;;;;;;5074097;28;20537;-75
2022/08/27 12:51:44;;;;;;;7.33;5.53;;;;;;;;;;5074729;28;20584;-75
2022/08/27 12:54:19;;;;;;;7.40;6.43;;;;;;;;;;5073696;28;20992;-75
2022/08/27 12:56:54;;;;;;;7.17;5.40;;;;;;;;;;5073890;28;20487;-75
2022/08/27 12:59:30;;;;;;;10.10;6.60;;;;;;;;;;5082239;28;20450;-75
2022/08/27 13:02:02;;;;;;;6.97;5.27;;;;;;;;;;5092005;28;20458;-74
2022/08/27 13:04:32;;;;;;;7.53;5.83;;;;;;;;;;5092447;28;20471;-75
2022/08/27 13:07:00;;;;;;;6.60;5.70;;;;;;;;;;5092264;28;20451;-75
2022/08/27 13:09:30;;;;;;;7.83;5.87;;;;;;;;;;5092200;28;20447;-75
2022/08/27 13:11:58;;;;;;;17.60;7.27;;;;;;;;;;5092205;28;20466;-75
2022/08/27 13:14:26;;;;;;;7.90;5.33;;;;;;;;;;5091746;28;20474;-74
2022/08/27 13:16:54;;;;;;;6.40;5.63;;;;;;;;;;5092370;28;20491;-75
2022/08/27 13:19:23;;;;;;;6.90;5.67;;;;;;;;;;5092152;28;20453;-75
2022/08/27 13:21:51;;;;;;;5.90;5.00;;;;;;;;;;5091927;28;20481;-75
2022/08/27 13:24:20;;;;;;;7.00;5.37;;;;;;;;;;5091996;28;20481;-75
2022/08/27 13:26:52;;;;;;;8.77;6.10;;;;;;;;;;5092184;28;20868;-75
2022/08/27 13:29:19;;;;;;;6.00;5.53;;;;;;;;;;5091737;28;20473;-75
2022/08/27 13:31:48;;;;;;;7.07;5.83;;;;;;;;;;5092020;28;20455;-75
2022/08/27 13:34:18;;;;;;;11.27;5.97;;;;;;;;;;5091894;28;20492;-74
2022/08/27 13:36:53;;;;;;;6.27;5.67;;;;;;;;;;5091694;28;20814;-75
2022/08/27 13:39:20;;;;;;;5.40;4.90;;;;;;;;;;5092391;28;20489;-74
2022/08/27 13:41:48;;;;;;;6.93;5.60;;;;;;;;;;5091706;28;20462;-75
2022/08/27 13:44:20;;;;;;;7.73;5.77;;;;;;;;;;5091525;28;20486;-75
2022/08/27 13:46:49;;;;;;;7.03;5.00;;;;;;;;;;5091920;28;20458;-75
2022/08/27 13:49:20;;;;;;;8.80;5.27;;;;;;;;;;5091855;28;20944;-75
2022/08/27 13:51:48;;;;;;;8.80;5.13;;;;;;;;;;5091917;28;20485;-75
2022/08/27 13:54:14;;;;;;;6.00;5.17;;;;;;;;;;5091780;28;20471;-75
2022/08/27 13:56:56;;;;;;;5.10;4.10;;;;;;;;;;5091789;28;20999;-75
2022/08/27 13:59:26;;;;;;;5.53;5.00;;;;;;;;;;5091538;28;20821;-75
2022/08/27 14:01:57;;;;;;;5.50;5.00;;;;;;;;;;5091758;28;20932;-74
2022/08/27 14:04:26;;;;;;;5.20;4.80;;;;;;;;;;5091169;28;20478;-74
2022/08/27 14:06:53;;;;;;;6.63;5.80;;;;;;;;;;5091828;28;20879;-74
2022/08/27 14:09:24;;;;;;;7.03;4.60;;;;;;;;;;5091561;28;20628;-74
2022/08/27 14:11:59;;;;;;;6.00;5.10;;;;;;;;;;5091365;28;20490;-74
2022/08/27 14:14:27;;;;;;;6.10;4.83;;;;;;;;;;5090734;28;20477;-74
2022/08/27 14:16:58;;;;;;;8.77;5.20;;;;;;;;;;5091689;28;20606;-75
2022/08/27 14:19:27;;;;;;;13.83;5.87;;;;;;;;;;5091310;28;20455;-74
2022/08/27 14:21:54;;;;;;;8.73;5.80;;;;;;;;;;5091553;28;20963;-74
2022/08/27 14:24:21;;;;;;;5.80;5.30;;;;;;;;;;5091452;28;20470;-74
2022/08/27 14:26:50;;;;;;;8.43;4.43;;;;;;;;;;5091418;28;20443;-74
2022/08/27 14:29:17;;;;;;;11.20;5.07;;;;;;;;;;5091640;28;20751;-75
2022/08/27 14:31:46;;;;;;;5.00;4.60;;;;;;;;;;5079369;28;20476;-75
2022/08/27 14:34:13;;;;;;;6.47;4.80;;;;;;;;;;5070870;28;20479;-74
2022/08/27 14:36:42;;;;;;;5.43;4.93;;;;;;;;;;5071124;28;20488;-75
2022/08/27 14:39:09;;;;;;;13.90;5.27;;;;;;;;;;5071106;28;20455;-74
2022/08/27 14:41:37;;;;;;;6.73;5.17;;;;;;;;;;5071276;28;20926;-74
2022/08/27 14:44:04;;;;;;;6.97;5.33;;;;;;;;;;5074877;28;20570;-74
2022/08/27 14:46:34;;;;;;;8.70;5.20;;;;;;;;;;5074624;28;20456;-75